Time,TemperatureF,DewpointF,PressureIn,WindDirection,WindDirectionDegrees,WindSpeedMPH,WindSpeedGustMPH,Humidity,HourlyPrecipIn,Conditions,Clouds,dailyrainin,SoftwareType,DateUTC
2013-04-09 08:05:00,49.7,48.3,29.97,SSW,203,2.0,2.0,95,0.00,,,0.00,Wunderground v.1.15,2013-04-09 12:05:00,
2013-04-09 08:10:00,49.9,48.5,29.96,SW,231,2.0,9.0,95,0.00,,,0.00,Wunderground v.1.15,2013-04-09 12:10:00,
2013-04-09 08:15:00,50.0,48.6,29.96,SSE,150,3.0,9.0,95,0.00,,,0.00,Wunderground v.1.15,2013-04-09 12:15:00,
2013-04-09 08:20:00,50.4,49.0,29.96,SW,223,3.0,3.0,95,0.00,,,0.00,Wunderground v.1.15,2013-04-09 12:20:00,
2013-04-09 08:25:00,50.9,49.5,29.96,SE,146,3.0,4.0,95,0.00,,,0.00,Wunderground v.1.15,2013-04-09 12:25:00,
2013-04-09 08:30:00,51.6,50.2,29.96,WSW,252,4.0,9.0,95,0.00,,,0.00,Wunderground v.1.15,2013-04-09 12:30:00,
2013-04-09 08:35:00,52.2,50.8,29.96,South,190,4.0,9.0,95,0.00,,,0.00,Wunderground v.1.15,2013-04-09 12:35:00,
2013-04-09 08:40:00,52.8,50.8,29.96,WNW,295,4.0,4.0,93,0.00,,,0.00,Wunderground v.1.15,2013-04-09 12:40:00,
2013-04-09 08:45:00,53.3,50.7,29.95,WSW,245,5.0,5.0,91,0.00,,,0.01,Wunderground v.1.15,2013-04-09 12:45:00,
2013-04-09 08:50:00,53.5,50.6,29.94,WSW,258,5.0,9.0,90,0.00,,,0.01,Wunderground v.1.15,2013-04-09 12:50:00,
2013-04-09 08:55:00,53.7,50.2,29.95,SW,232,5.0,9.0,88,0.00,,,0.01,Wunderground v.1.15,2013-04-09 12:55:00,
2013-04-09 09:00:00,53.8,50.0,29.95,West,265,6.0,6.0,87,0.00,,,0.01,Wunderground v.1.15,2013-04-09 13:00:00,
2013-04-09 09:10:00,53.9,49.8,29.94,West,262,5.0,13.0,86,0.00,,,0.01,Wunderground v.1.15,2013-04-09 13:10:00,
2013-04-09 09:15:00,53.8,49.7,29.95,West,267,5.0,13.0,86,0.00,,,0.01,Wunderground v.1.15,2013-04-09 13:15:00,
2013-04-09 09:25:00,54.0,49.6,29.94,West,262,6.0,13.0,85,0.00,,,0.01,Wunderground v.1.15,2013-04-09 13:25:00,
2013-04-09 09:30:00,54.5,50.1,29.94,WNW,289,6.0,13.0,85,0.00,,,0.01,Wunderground v.1.15,2013-04-09 13:30:00,
2013-04-09 09:35:00,55.0,49.9,29.94,West,271,6.0,13.0,83,0.00,,,0.01,Wunderground v.1.15,2013-04-09 13:35:00,
2013-04-09 09:40:00,55.0,49.9,29.94,West,267,7.0,13.0,83,0.00,,,0.01,Wunderground v.1.15,2013-04-09 13:40:00,
2013-04-09 09:50:00,54.7,49.6,29.94,SW,222,7.0,7.0,83,0.00,,,0.01,Wunderground v.1.15,2013-04-09 13:50:00,
2013-04-09 09:55:00,55.1,50.0,29.93,WSW,238,6.0,13.0,83,0.00,,,0.01,Wunderground v.1.15,2013-04-09 13:55:00,
2013-04-09 10:00:00,55.5,49.8,29.93,WSW,252,5.0,15.0,81,0.00,,,0.01,Wunderground v.1.15,2013-04-09 14:00:00,
2013-04-09 10:10:00,56.0,49.9,29.93,WSW,254,6.0,15.0,80,0.00,,,0.01,Wunderground v.1.15,2013-04-09 14:10:00,
2013-04-09 10:15:00,55.9,49.8,29.93,WNW,294,7.0,15.0,80,0.00,,,0.01,Wunderground v.1.15,2013-04-09 14:15:00,
2013-04-09 10:25:00,56.7,49.9,29.93,West,263,7.0,13.0,78,0.00,,,0.01,Wunderground v.1.15,2013-04-09 14:25:00,
2013-04-09 10:30:00,57.5,50.7,29.93,SSW,195,7.0,7.0,78,0.00,,,0.01,Wunderground v.1.15,2013-04-09 14:30:00,
2013-04-09 10:40:00,57.5,50.3,29.93,West,274,8.0,15.0,77,0.00,,,0.01,Wunderground v.1.15,2013-04-09 14:40:00,
2013-04-09 10:45:00,57.7,50.2,29.93,NW,307,9.0,15.0,76,0.00,,,0.01,Wunderground v.1.15,2013-04-09 14:45:00,
2013-04-09 10:50:00,56.8,49.7,29.93,West,264,9.0,9.0,77,0.00,,,0.01,Wunderground v.1.15,2013-04-09 14:50:00,
2013-04-09 10:55:00,57.4,50.2,29.93,WSW,258,10.0,10.0,77,0.00,,,0.01,Wunderground v.1.15,2013-04-09 14:55:00,
2013-04-09 11:00:00,57.5,50.0,29.93,SW,219,7.0,22.0,76,0.00,,,0.01,Wunderground v.1.15,2013-04-09 15:00:00,
2013-04-09 11:10:00,57.3,49.8,29.92,WSW,256,7.0,22.0,76,0.00,,,0.01,Wunderground v.1.15,2013-04-09 15:10:00,
2013-04-09 11:15:00,57.5,49.6,29.92,West,260,8.0,22.0,75,0.00,,,0.01,Wunderground v.1.15,2013-04-09 15:15:00,
2013-04-09 11:20:00,58.4,50.1,29.92,West,259,8.0,8.0,74,0.00,,,0.01,Wunderground v.1.15,2013-04-09 15:20:00,
2013-04-09 11:25:00,58.7,50.1,29.92,West,278,7.0,22.0,73,0.00,,,0.01,Wunderground v.1.15,2013-04-09 15:25:00,
2013-04-09 11:30:00,58.8,50.2,29.92,NW,314,7.0,7.0,73,0.00,,,0.01,Wunderground v.1.15,2013-04-09 15:30:00,
2013-04-09 11:40:00,59.2,49.8,29.92,WSW,256,7.0,7.0,71,0.00,,,0.01,Wunderground v.1.15,2013-04-09 15:40:00,
2013-04-09 11:45:00,59.2,49.8,29.92,WNW,285,8.0,8.0,71,0.00,,,0.01,Wunderground v.1.15,2013-04-09 15:45:00,
2013-04-09 11:55:00,59.9,50.5,29.91,SSW,201,8.0,22.0,71,0.00,,,0.01,Wunderground v.1.15,2013-04-09 15:55:00,
2013-04-09 12:00:00,60.7,50.9,29.91,SSW,193,7.0,7.0,70,0.00,,,0.01,Wunderground v.1.15,2013-04-09 16:00:00,
2013-04-09 12:10:00,61.1,50.5,29.91,West,270,10.0,19.0,68,0.00,,,0.01,Wunderground v.1.15,2013-04-09 16:10:00,
2013-04-09 12:15:00,60.8,50.6,29.90,SW,234,11.0,19.0,69,0.00,,,0.01,Wunderground v.1.15,2013-04-09 16:15:00,
2013-04-09 12:20:00,60.9,50.7,29.91,WSW,255,11.0,19.0,69,0.00,,,0.01,Wunderground v.1.15,2013-04-09 16:20:00,
2013-04-09 12:25:00,61.3,51.0,29.91,WSW,251,10.0,19.0,69,0.00,,,0.01,Wunderground v.1.15,2013-04-09 16:25:00,
2013-04-09 12:35:00,62.9,51.8,29.91,WNW,295,7.0,10.0,67,0.00,,,0.01,Wunderground v.1.15,2013-04-09 16:35:00,
2013-04-09 12:40:00,62.6,51.5,29.91,South,184,8.0,8.0,67,0.00,,,0.01,Wunderground v.1.15,2013-04-09 16:40:00,
2013-04-09 12:45:00,62.5,51.4,29.90,WSW,243,10.0,10.0,67,0.00,,,0.01,Wunderground v.1.15,2013-04-09 16:45:00,
2013-04-09 12:50:00,63.0,51.5,29.91,WSW,258,8.0,8.0,66,0.00,,,0.01,Wunderground v.1.15,2013-04-09 16:50:00,
2013-04-09 13:00:00,63.3,51.3,29.90,WSW,248,9.0,9.0,65,0.00,,,0.01,Wunderground v.1.15,2013-04-09 17:00:00,
2013-04-09 13:10:00,64.0,51.6,29.89,WSW,241,8.0,8.0,64,0.00,,,0.01,Wunderground v.1.15,2013-04-09 17:10:00,
2013-04-09 13:15:00,64.1,51.2,29.89,West,274,7.0,22.0,63,0.00,,,0.01,Wunderground v.1.15,2013-04-09 17:15:00,
2013-04-09 13:20:00,64.7,50.9,29.89,West,261,7.0,22.0,61,0.00,,,0.01,Wunderground v.1.15,2013-04-09 17:20:00,
2013-04-09 13:30:00,65.8,52.0,29.89,WSW,257,7.0,22.0,61,0.00,,,0.01,Wunderground v.1.15,2013-04-09 17:30:00,
2013-04-09 13:35:00,65.9,51.2,29.89,WSW,239,7.0,22.0,59,0.00,,,0.01,Wunderground v.1.15,2013-04-09 17:35:00,
2013-04-09 13:40:00,65.9,50.7,29.89,West,281,8.0,22.0,58,0.00,,,0.01,Wunderground v.1.15,2013-04-09 17:40:00,
2013-04-09 13:50:00,66.8,51.1,29.89,West,262,7.0,22.0,57,0.00,,,0.01,Wunderground v.1.15,2013-04-09 17:50:00,
2013-04-09 13:55:00,66.7,51.0,29.89,West,261,7.0,22.0,57,0.00,,,0.01,Wunderground v.1.15,2013-04-09 17:55:00,
2013-04-09 14:05:00,67.3,51.1,29.89,West,272,8.0,19.0,56,0.00,,,0.01,Wunderground v.1.15,2013-04-09 18:05:00,
2013-04-09 14:10:00,66.6,49.9,29.89,West,281,9.0,19.0,55,0.00,,,0.01,Wunderground v.1.15,2013-04-09 18:10:00,
2013-04-09 14:15:00,66.8,50.6,29.90,WSW,254,9.0,19.0,56,0.00,,,0.01,Wunderground v.1.15,2013-04-09 18:15:00,
2013-04-09 14:25:00,65.2,49.6,29.91,West,262,9.0,12.0,57,0.00,,,0.01,Wunderground v.1.15,2013-04-09 18:25:00,
2013-04-09 14:30:00,64.5,49.4,29.90,West,264,8.0,19.0,58,0.00,,,0.01,Wunderground v.1.15,2013-04-09 18:30:00,
2013-04-09 14:40:00,63.2,48.6,29.91,SSW,194,8.0,8.0,59,0.00,,,0.01,Wunderground v.1.15,2013-04-09 18:40:00,
2013-04-09 14:45:00,62.5,48.9,29.91,WSW,254,9.0,9.0,61,0.00,,,0.01,Wunderground v.1.15,2013-04-09 18:45:00,
2013-04-09 14:55:00,62.0,48.4,29.90,West,259,8.0,9.0,61,0.00,,,0.01,Wunderground v.1.15,2013-04-09 18:55:00,
2013-04-09 15:00:00,62.9,48.8,29.90,NW,305,8.0,17.0,60,0.00,,,0.01,Wunderground v.1.15,2013-04-09 19:00:00,
2013-04-09 15:10:00,63.7,49.1,29.90,NW,319,7.0,17.0,59,0.00,,,0.01,Wunderground v.1.15,2013-04-09 19:10:00,
2013-04-09 15:15:00,63.5,48.5,29.90,West,281,7.0,17.0,58,0.00,,,0.01,Wunderground v.1.15,2013-04-09 19:15:00,
2013-04-09 15:25:00,62.5,48.0,29.90,WNW,294,8.0,17.0,59,0.00,,,0.01,Wunderground v.1.15,2013-04-09 19:25:00,
2013-04-09 15:30:00,62.5,48.0,29.91,West,279,8.0,8.0,59,0.00,,,0.01,Wunderground v.1.15,2013-04-09 19:30:00,
2013-04-09 15:35:00,62.3,47.8,29.91,WNW,303,8.0,17.0,59,0.00,,,0.01,Wunderground v.1.15,2013-04-09 19:35:00,
2013-04-09 15:45:00,63.1,48.5,29.91,NW,310,7.0,17.0,59,0.00,,,0.01,Wunderground v.1.15,2013-04-09 19:45:00,
2013-04-09 15:50:00,63.0,48.0,29.91,West,272,7.0,7.0,58,0.00,,,0.01,Wunderground v.1.15,2013-04-09 19:50:00,
2013-04-09 15:55:00,63.2,47.7,29.91,West,267,7.0,9.0,57,0.00,,,0.01,Wunderground v.1.15,2013-04-09 19:55:00,
2013-04-09 16:00:00,62.7,47.7,29.91,NW,319,7.0,7.0,58,0.00,,,0.01,Wunderground v.1.15,2013-04-09 20:00:00,
2013-04-09 16:10:00,63.7,48.2,29.91,NW,309,6.0,14.0,57,0.00,,,0.01,Wunderground v.1.15,2013-04-09 20:10:00,
2013-04-09 16:20:00,64.7,47.7,29.91,West,281,6.0,14.0,54,0.00,,,0.01,Wunderground v.1.15,2013-04-09 20:20:00,
2013-04-09 16:25:00,64.5,48.0,29.91,West,268,6.0,14.0,55,0.00,,,0.01,Wunderground v.1.15,2013-04-09 20:25:00,